createdAt,value
2023-04-25T00:03:52.648Z,50.8
2023-04-25T00:09:11.015Z,50.3
2023-04-25T00:14:29.501Z,50.6
2023-04-25T00:19:47.842Z,51.2
2023-04-25T00:25:06.236Z,50.2
2023-04-25T00:30:24.673Z,51.1
2023-04-25T00:35:42.853Z,50.4
2023-04-25T00:41:01.175Z,50.9
2023-04-25T00:46:19.542Z,49.9
2023-04-25T00:51:37.704Z,50.1
2023-04-25T00:56:56.060Z,51.1
2023-04-25T01:02:14.590Z,50.3
2023-04-25T01:07:32.675Z,50.9
2023-04-25T01:12:50.641Z,51.2
2023-04-25T01:18:09.007Z,50.5
2023-04-25T01:23:27.029Z,51.3
2023-04-25T01:28:45.373Z,50.9
2023-04-25T01:34:03.532Z,50.7
2023-04-25T01:39:22.079Z,51.5
2023-04-25T01:44:40.388Z,50.9
2023-04-25T01:49:58.605Z,50.4
2023-04-25T01:55:17.128Z,50.7
2023-04-25T02:00:35.489Z,51.7
2023-04-25T02:05:53.716Z,50.9
2023-04-25T02:11:11.900Z,51.1
2023-04-25T02:16:30.235Z,51.9
2023-04-25T02:21:48.628Z,51.1
2023-04-25T02:27:06.580Z,51.3
2023-04-25T02:32:24.804Z,51.1
2023-04-25T02:37:43.199Z,51.8
2023-04-25T02:43:01.549Z,51
2023-04-25T02:48:19.951Z,51.8
2023-04-25T02:53:38.114Z,51.4
2023-04-25T02:58:56.598Z,52.4
2023-04-25T03:04:15.135Z,51.3
2023-04-25T03:09:33.388Z,51.7
2023-04-25T03:14:51.930Z,52.3
2023-04-25T03:20:10.449Z,52.1
2023-04-25T03:25:28.869Z,52.2
2023-04-25T03:30:47.016Z,51.7
2023-04-25T03:36:05.599Z,51.9
2023-04-25T03:41:23.999Z,51.7
2023-04-25T03:46:42.196Z,52.4
2023-04-25T03:52:00.533Z,51.6
2023-04-25T03:57:19.048Z,51.2
2023-04-25T04:02:37.556Z,51.7
2023-04-25T04:07:55.961Z,50.9
2023-04-25T04:13:14.508Z,51.9
2023-04-25T04:18:32.822Z,51.6
2023-04-25T04:23:51.686Z,51.5
2023-04-25T04:29:10.154Z,51.3
2023-04-25T04:34:28.666Z,50.9
2023-04-25T04:39:47.043Z,48
2023-04-25T04:45:05.441Z,47.6
2023-04-25T04:50:23.831Z,47.6
2023-04-25T04:55:42.320Z,48.6
2023-04-25T05:01:00.728Z,48.8
2023-04-25T05:06:18.739Z,49.9
2023-04-25T05:11:37.046Z,50
2023-04-25T05:16:55.996Z,49.4
2023-04-25T05:22:14.059Z,49.5
2023-04-25T05:27:32.692Z,50.2
2023-04-25T05:32:51.085Z,50.3
2023-04-25T05:38:09.584Z,50.2
2023-04-25T05:43:27.704Z,50.3
2023-04-25T05:48:45.887Z,50.3
2023-04-25T05:54:04.238Z,49
2023-04-25T05:59:22.377Z,50.4
2023-04-25T06:04:40.914Z,49.6
2023-04-25T06:09:59.232Z,50.2
2023-04-25T06:15:29.563Z,49.6
2023-04-25T06:20:47.924Z,50.3
2023-04-25T06:26:06.185Z,50.2
2023-04-25T06:31:24.661Z,50.2
2023-04-25T06:36:42.736Z,50
2023-04-25T06:42:01.091Z,49.3
2023-04-25T06:47:19.302Z,50.1
2023-04-25T06:52:37.784Z,49.3
2023-04-25T06:57:56.527Z,49.4
2023-04-25T07:03:15.388Z,49.1
2023-04-25T07:08:33.653Z,49.2
2023-04-25T07:13:51.783Z,49.3
2023-04-25T07:19:10.400Z,50
2023-04-25T07:24:28.757Z,49.9
2023-04-25T07:29:46.958Z,49.1
2023-04-25T07:35:05.219Z,49.8
2023-04-25T07:40:23.707Z,49.1
2023-04-25T07:45:42.131Z,49.6
2023-04-25T07:51:00.096Z,49.1
2023-04-25T07:56:18.197Z,48.9
2023-04-25T08:01:36.550Z,48.8
2023-04-25T08:06:55.811Z,50.1
2023-04-25T08:12:14.367Z,49.6
2023-04-25T08:17:33.177Z,49.1
2023-04-25T08:22:51.421Z,49.7
2023-04-25T08:28:09.792Z,49.6
2023-04-25T08:33:28.639Z,48.8
2023-04-25T08:38:46.818Z,49.1
2023-04-25T08:44:05.096Z,49.8
2023-04-25T08:49:23.486Z,49.6
2023-04-25T08:54:42.980Z,49.3
2023-04-25T09:00:01.625Z,48.5
2023-04-25T09:05:22.480Z,48.9
2023-04-25T09:10:41.060Z,48.8
2023-04-25T09:15:59.667Z,49.9
2023-04-25T09:21:17.970Z,49.6
2023-04-25T09:26:36.532Z,49.4
2023-04-25T09:31:54.985Z,49.4
2023-04-25T09:37:13.717Z,49
2023-04-25T09:42:31.899Z,48.8
2023-04-25T09:47:50.622Z,49.1
2023-04-25T09:53:08.819Z,48.8
2023-04-25T09:58:27.483Z,48.7
2023-04-25T10:03:46.136Z,49.5
2023-04-25T10:09:04.354Z,49.6
2023-04-25T10:14:22.714Z,48.8
2023-04-25T10:19:41.256Z,49.4
2023-04-25T10:25:00.000Z,49.4
2023-04-25T10:30:18.465Z,49
2023-04-25T10:35:36.899Z,49.4
2023-04-25T10:40:55.224Z,48.8
2023-04-25T10:46:13.471Z,48.6
2023-04-25T10:51:55.869Z,49
2023-04-25T10:57:14.262Z,48.6
2023-04-25T11:02:32.695Z,48.9
2023-04-25T11:08:08.613Z,47.6
2023-04-25T11:13:26.994Z,45.8
2023-04-25T11:18:45.132Z,43.7
2023-04-25T11:24:03.374Z,41.3
2023-04-25T11:29:21.857Z,43.1
2023-04-25T11:34:40.227Z,44
2023-04-25T11:39:58.832Z,44.1
2023-04-25T11:45:17.320Z,44.8
2023-04-25T11:50:35.477Z,44.7
2023-04-25T11:55:54.769Z,44.4
2023-04-25T12:01:13.518Z,45.2
2023-04-25T12:06:32.139Z,44.5
2023-04-25T12:11:50.699Z,44.1
2023-04-25T12:17:09.641Z,43.3
2023-04-25T12:22:28.007Z,43.8
2023-04-25T12:27:47.062Z,43
2023-04-25T12:33:05.307Z,41.9
2023-04-25T12:38:23.484Z,43.2
2023-04-25T12:43:41.929Z,43.7
2023-04-25T12:49:19.740Z,44.2
2023-04-25T12:54:38.400Z,44.2
2023-04-25T12:59:57.005Z,44.5
2023-04-25T13:05:15.204Z,45.4
2023-04-25T13:10:33.352Z,45
2023-04-25T13:15:36.154Z,44.8
2023-04-25T13:20:54.656Z,44.7
2023-04-25T13:26:13.013Z,45.4
2023-04-25T13:31:31.335Z,45.3
2023-04-25T13:36:49.853Z,45.7
2023-04-25T13:42:13.704Z,45.6
2023-04-25T13:47:22.000Z,45.4
2023-04-25T13:52:40.237Z,46.1
2023-04-25T13:57:58.358Z,45.6
2023-04-25T14:03:17.083Z,45.7
2023-04-25T14:08:35.366Z,46.1
2023-04-25T14:13:54.266Z,46.5
2023-04-25T14:19:15.391Z,47.2
2023-04-25T14:24:33.462Z,47
2023-04-25T14:29:52.370Z,46.7
2023-04-25T14:35:10.700Z,47
2023-04-25T14:40:14.261Z,47.1
2023-04-25T14:45:18.675Z,46.5
2023-04-25T14:50:37.130Z,47.1
2023-04-25T14:56:01.277Z,46.5
2023-04-25T15:01:04.476Z,46.3
2023-04-25T15:06:22.939Z,47.6
2023-04-25T15:11:41.122Z,46.7
2023-04-25T15:16:59.617Z,46.7
2023-04-25T15:22:18.540Z,47.5
2023-04-25T15:27:37.026Z,47.6
2023-04-25T15:32:55.268Z,46.2
2023-04-25T15:38:13.847Z,46
2023-04-25T15:43:32.378Z,46.6
2023-04-25T15:48:50.714Z,47.4
2023-04-25T15:54:08.890Z,48.1
2023-04-25T15:59:27.192Z,47.6
2023-04-25T16:04:45.976Z,47.8
2023-04-25T16:10:04.501Z,48.1
2023-04-25T16:15:22.851Z,48
2023-04-25T16:20:41.207Z,48.8
2023-04-25T16:25:59.606Z,48
2023-04-25T16:31:18.223Z,48.2
2023-04-25T16:36:37.822Z,48.5
2023-04-25T16:41:56.361Z,47.7
2023-04-25T16:47:20.952Z,45.3
2023-04-25T16:52:39.294Z,44.5
2023-04-25T16:57:57.754Z,45.7
2023-04-25T17:03:01.164Z,45.5
2023-04-25T17:08:19.457Z,46.8
2023-04-25T17:13:37.947Z,46.8
2023-04-25T17:18:56.782Z,46.3
2023-04-25T17:24:15.117Z,46.3
2023-04-25T17:29:17.650Z,46.5
2023-04-25T17:34:36.268Z,47.2
2023-04-25T17:39:54.576Z,46.9
2023-04-25T17:45:12.824Z,47
2023-04-25T17:50:31.188Z,47.3
2023-04-25T17:55:49.508Z,48.2
2023-04-25T18:01:08.060Z,48.1
2023-04-25T18:06:26.101Z,47.6
2023-04-25T18:11:44.655Z,47.7
2023-04-25T18:17:03.140Z,46.4
2023-04-25T18:22:21.349Z,48.3
2023-04-25T18:27:39.658Z,49
2023-04-25T18:32:58.479Z,49.1
2023-04-25T18:38:36.361Z,49.3
2023-04-25T18:43:55.849Z,48.6
2023-04-25T18:49:14.529Z,48.3
2023-04-25T18:54:33.292Z,48.5
2023-04-25T18:59:51.979Z,47.7
2023-04-25T19:05:10.494Z,48.6
2023-04-25T19:10:29.245Z,49.1
2023-04-25T19:15:47.374Z,49.6
2023-04-25T19:21:05.746Z,48.9
2023-04-25T19:26:24.290Z,49.9
2023-04-25T19:31:42.681Z,49.2
2023-04-25T19:37:01.090Z,49.3
2023-04-25T19:42:19.308Z,50.2
2023-04-25T19:47:38.057Z,50.4
2023-04-25T19:52:56.661Z,50
2023-04-25T19:58:14.682Z,49.8
2023-04-25T20:03:33.368Z,49.8
2023-04-25T20:08:52.739Z,50.2
2023-04-25T20:14:11.097Z,50.2
2023-04-25T20:19:29.273Z,50.8
2023-04-25T20:24:47.873Z,50.9
2023-04-25T20:30:06.065Z,50
2023-04-25T20:35:24.464Z,51
2023-04-25T20:40:42.828Z,50.6
2023-04-25T20:46:01.217Z,51.1
2023-04-25T20:51:19.403Z,50.5
2023-04-25T20:56:37.591Z,51
2023-04-25T21:01:55.724Z,51
2023-04-25T21:07:14.088Z,50.4
2023-04-25T21:12:32.409Z,51
2023-04-25T21:17:50.749Z,51.2
2023-04-25T21:23:09.309Z,51
2023-04-25T21:28:27.540Z,50.4
2023-04-25T21:33:45.836Z,50.9
2023-04-25T21:39:04.157Z,50.3
2023-04-25T21:44:22.152Z,51
2023-04-25T21:49:40.448Z,50.5
2023-04-25T21:54:58.779Z,50.3
2023-04-25T22:00:16.965Z,50
2023-04-25T22:05:35.110Z,50.3
2023-04-25T22:10:53.368Z,50.6
2023-04-25T22:16:11.773Z,50.5
2023-04-25T22:21:30.003Z,50.4
2023-04-25T22:26:48.171Z,51.3
2023-04-25T22:32:06.905Z,50.5
2023-04-25T22:37:24.897Z,50.2
2023-04-25T22:42:43.311Z,51
2023-04-25T22:48:02.028Z,51.2
2023-04-25T22:53:20.476Z,51.5
2023-04-25T22:58:38.865Z,50.9
2023-04-25T23:03:57.842Z,51
2023-04-25T23:09:16.260Z,50.9
2023-04-25T23:14:34.837Z,51.2
2023-04-25T23:19:53.276Z,51.5
2023-04-25T23:25:11.334Z,51.5
2023-04-25T23:30:29.464Z,51.3
2023-04-25T23:35:47.521Z,51.5
2023-04-25T23:41:05.949Z,52.1
2023-04-25T23:46:24.368Z,51.4
2023-04-25T23:51:42.704Z,51.4
2023-04-25T23:57:01.096Z,51.5
